Terminal Aerodrome Forecast
Issued by NWS Grand Rapids, MI

Home | Current Version | Previous Version | Text Only | Print | Product List | Glossary On
Versions: 1 2 3 4 5 6 7 8 9 10 11 12 13 14 15 16
832
FTUS43 KGRR 170659 AAB
TAFGRR
TAF AMD
KGRR 170659Z 1707/1806 13010KT P6SM VCSH BKN090
      TEMPO 1707/1711 4SM TSRA OVC040CB
     FM171800 23016G23KT P6SM VCTS BKN040CB BKN120
     FM172200 24015G23KT P6SM BKN060
     FM180000 24011KT P6SM OVC050=

USA.gov is the U.S. government's official web portal to all federal, state and local government web resources and services.